createdAt,value
2018-02-07T00:01:07.658Z,-0.50
2018-02-07T00:03:35.065Z,-0.60
2018-02-07T00:06:02.510Z,-0.60
2018-02-07T00:08:29.995Z,-0.60
2018-02-07T00:10:57.533Z,-0.50
2018-02-07T00:13:24.977Z,-0.50
2018-02-07T00:15:52.416Z,-0.40
2018-02-07T00:18:19.850Z,-0.40
2018-02-07T00:20:47.320Z,-0.60
2018-02-07T00:23:14.756Z,-0.70
2018-02-07T00:25:42.272Z,-0.70
2018-02-07T00:28:09.732Z,-0.70
2018-02-07T00:30:37.186Z,-0.60
2018-02-07T00:33:04.640Z,-0.50
2018-02-07T00:35:32.184Z,-0.50
2018-02-07T00:37:59.654Z,-0.60
2018-02-07T00:40:27.146Z,-0.60
2018-02-07T00:42:54.616Z,-0.60
2018-02-07T00:45:22.862Z,-0.50
2018-02-07T00:47:51.140Z,-0.50
2018-02-07T00:50:18.717Z,-0.50
2018-02-07T00:52:46.157Z,-0.60
2018-02-07T00:55:13.595Z,-0.60
2018-02-07T00:57:41.028Z,0.00
2018-02-07T01:00:08.542Z,0.70
2018-02-07T01:02:36.701Z,0.80
2018-02-07T01:05:04.881Z,0.60
2018-02-07T01:07:33.142Z,0.30
2018-02-07T01:10:00.572Z,0.20
2018-02-07T01:12:28.028Z,0.00
2018-02-07T01:14:55.485Z,-0.10
2018-02-07T01:17:23.693Z,-0.20
2018-02-07T01:19:51.134Z,-0.20
2018-02-07T01:22:19.332Z,-0.20
2018-02-07T01:24:46.755Z,-0.20
2018-02-07T01:27:14.202Z,-0.20
2018-02-07T01:29:41.670Z,-0.20
2018-02-07T01:32:09.157Z,-0.20
2018-02-07T01:34:36.579Z,-0.20
2018-02-07T01:37:04.085Z,-0.20
2018-02-07T01:39:31.518Z,-0.30
2018-02-07T01:41:59.701Z,-0.40
2018-02-07T01:44:27.906Z,-0.40
2018-02-07T01:46:55.362Z,-0.40
2018-02-07T01:49:23.587Z,-0.40
2018-02-07T01:51:51.038Z,-0.40
2018-02-07T01:54:18.494Z,-0.50
2018-02-07T01:56:46.681Z,-0.40
2018-02-07T01:59:14.124Z,-0.40
2018-02-07T02:01:41.579Z,-0.40
2018-02-07T02:04:09.038Z,-0.40
2018-02-07T02:06:36.461Z,-0.40
2018-02-07T02:09:03.870Z,-0.40
2018-02-07T02:11:31.306Z,-0.50
2018-02-07T02:13:58.763Z,-0.50
2018-02-07T02:16:26.945Z,-0.60
2018-02-07T02:18:54.390Z,-0.60
2018-02-07T02:21:21.898Z,-0.60
2018-02-07T02:23:49.386Z,-0.70
2018-02-07T02:26:16.822Z,-0.70
2018-02-07T02:28:45.064Z,-0.70
2018-02-07T02:31:12.466Z,-0.70
2018-02-07T02:33:40.674Z,-0.60
2018-02-07T02:36:20.054Z,-0.70
2018-02-07T02:38:47.481Z,-0.60
2018-02-07T02:41:15.701Z,-0.50
2018-02-07T02:43:43.144Z,-0.50
2018-02-07T02:46:11.322Z,-0.50
2018-02-07T02:48:38.753Z,-0.50
2018-02-07T02:51:06.214Z,-0.60
2018-02-07T02:53:33.651Z,-0.60
2018-02-07T02:56:01.122Z,-0.60
2018-02-07T02:58:28.583Z,-0.60
2018-02-07T03:00:56.021Z,-0.60
2018-02-07T03:03:24.245Z,-0.60
2018-02-07T03:05:51.693Z,-0.60
2018-02-07T03:08:19.119Z,-0.50
2018-02-07T03:10:46.661Z,-0.60
2018-02-07T03:13:14.108Z,-0.70
2018-02-07T03:15:41.529Z,-0.70
2018-02-07T03:18:08.958Z,-0.70
2018-02-07T03:20:36.387Z,-0.60
2018-02-07T03:23:03.814Z,-0.60
2018-02-07T03:25:31.253Z,-0.60
2018-02-07T03:27:58.669Z,-0.60
2018-02-07T03:30:26.205Z,-0.60
2018-02-07T03:32:53.621Z,-0.50
2018-02-07T03:35:21.047Z,-0.50
2018-02-07T03:37:48.507Z,-0.50
2018-02-07T03:40:15.943Z,-0.50
2018-02-07T03:42:44.162Z,-0.50
2018-02-07T03:45:12.425Z,-0.50
2018-02-07T03:47:39.957Z,-0.50
2018-02-07T03:50:07.409Z,-0.40
2018-02-07T03:52:35.597Z,-0.40
2018-02-07T03:55:03.072Z,-0.40
2018-02-07T03:57:31.254Z,-0.30
2018-02-07T03:59:58.737Z,-0.30
2018-02-07T04:02:26.444Z,-0.30
2018-02-07T04:04:53.904Z,-0.30
2018-02-07T04:07:21.353Z,-0.30
2018-02-07T04:09:48.812Z,-0.30
2018-02-07T04:12:17.077Z,-0.40
2018-02-07T04:14:45.321Z,-0.50
2018-02-07T04:17:12.820Z,-0.50
2018-02-07T04:19:40.322Z,-0.60
2018-02-07T04:22:08.571Z,-0.60
2018-02-07T04:24:36.074Z,-0.60
2018-02-07T04:27:04.464Z,-0.40
2018-02-07T04:29:32.114Z,-0.40
2018-02-07T04:31:59.572Z,-0.40
2018-02-07T04:34:27.010Z,-0.40
2018-02-07T04:36:54.510Z,-0.40
2018-02-07T04:39:21.926Z,-0.30
2018-02-07T04:41:49.468Z,-0.30
2018-02-07T04:44:16.962Z,-0.30
2018-02-07T04:46:45.285Z,-0.30
2018-02-07T04:49:13.505Z,-0.40
2018-02-07T04:51:40.967Z,-0.40
2018-02-07T04:54:08.393Z,-0.50
2018-02-07T04:56:36.591Z,-0.70
2018-02-07T04:59:04.110Z,-0.70
2018-02-07T05:01:31.577Z,-0.60
2018-02-07T05:03:59.129Z,-0.60
2018-02-07T05:06:26.587Z,-0.50
2018-02-07T05:08:54.105Z,-0.50
2018-02-07T05:11:21.677Z,-0.50
2018-02-07T05:13:49.202Z,-0.60
2018-02-07T05:16:17.447Z,-0.60
2018-02-07T05:18:44.905Z,-0.60
2018-02-07T05:21:12.352Z,-0.60
2018-02-07T05:23:39.798Z,-0.50
2018-02-07T05:26:07.270Z,-0.50
2018-02-07T05:28:35.560Z,-0.50
2018-02-07T05:31:02.992Z,-0.50
2018-02-07T05:33:30.448Z,-0.50
2018-02-07T05:35:57.914Z,-0.50
2018-02-07T05:38:25.369Z,-0.50
2018-02-07T05:40:52.861Z,-0.50
2018-02-07T05:43:20.350Z,-0.50
2018-02-07T05:45:47.857Z,-0.50
2018-02-07T05:48:15.311Z,-0.50
2018-02-07T05:50:42.752Z,-0.50
2018-02-07T05:53:10.309Z,-0.50
2018-02-07T05:55:37.973Z,-0.50
2018-02-07T05:58:05.537Z,-0.50
2018-02-07T06:00:32.980Z,-0.40
2018-02-07T06:03:00.410Z,-0.40
2018-02-07T06:05:28.620Z,-0.50
2018-02-07T06:07:56.090Z,-0.50
2018-02-07T06:10:23.594Z,-0.60
2018-02-07T06:12:51.202Z,-0.60
2018-02-07T06:15:19.409Z,-0.60
2018-02-07T06:17:46.862Z,-0.60
2018-02-07T06:20:15.071Z,-0.60
2018-02-07T06:22:42.522Z,-0.60
2018-02-07T06:25:10.730Z,-0.60
2018-02-07T06:27:38.189Z,-0.60
2018-02-07T06:30:05.653Z,-0.50
2018-02-07T06:32:33.916Z,-0.50
2018-02-07T06:35:01.374Z,-0.50
2018-02-07T06:37:28.840Z,-0.50
2018-02-07T06:39:56.270Z,-0.60
2018-02-07T06:42:23.718Z,-0.50
2018-02-07T06:44:51.210Z,-0.40
2018-02-07T06:47:18.631Z,-0.40
2018-02-07T06:49:47.556Z,-0.40
2018-02-07T06:52:14.994Z,-0.40
2018-02-07T06:54:42.414Z,-0.40
2018-02-07T06:57:10.674Z,-0.40
2018-02-07T06:59:38.206Z,-0.40
2018-02-07T07:02:05.636Z,-0.40
2018-02-07T07:04:33.814Z,-0.30
2018-02-07T07:07:01.315Z,-0.30
2018-02-07T07:09:28.774Z,-0.30
2018-02-07T07:11:56.223Z,-0.30
2018-02-07T07:14:24.458Z,-0.20
2018-02-07T07:16:51.874Z,-0.20
2018-02-07T07:19:20.069Z,-0.30
2018-02-07T07:21:48.315Z,-0.20
2018-02-07T07:24:15.766Z,-0.30
2018-02-07T07:26:43.201Z,-0.20
2018-02-07T07:29:10.681Z,-0.20
2018-02-07T07:31:38.914Z,-0.30
2018-02-07T07:34:06.450Z,-0.30
2018-02-07T07:36:33.878Z,-0.30
2018-02-07T07:39:02.166Z,-0.20
2018-02-07T07:41:29.634Z,-0.20
2018-02-07T07:43:57.041Z,-0.20
2018-02-07T07:46:24.473Z,-0.20
2018-02-07T07:48:52.690Z,-0.20
2018-02-07T07:51:20.158Z,-0.20
2018-02-07T07:53:47.721Z,-0.30
2018-02-07T07:56:15.919Z,-0.20
2018-02-07T07:58:43.411Z,-0.20
2018-02-07T08:01:10.831Z,-0.20
2018-02-07T08:03:38.336Z,-0.20
2018-02-07T08:06:05.790Z,-0.10
2018-02-07T08:08:33.264Z,-0.10
2018-02-07T08:11:01.485Z,-0.10
2018-02-07T08:13:28.934Z,-0.10
2018-02-07T08:15:56.399Z,0.00
2018-02-07T08:18:23.814Z,0.00
2018-02-07T08:20:51.305Z,-0.10
2018-02-07T08:23:19.520Z,-0.20
2018-02-07T08:25:46.949Z,-0.20
2018-02-07T08:28:15.150Z,0.10
2018-02-07T08:30:43.355Z,0.70
2018-02-07T08:33:10.842Z,0.70
2018-02-07T08:35:38.262Z,0.80
2018-02-07T08:38:06.493Z,0.60
2018-02-07T08:40:33.950Z,0.60
2018-02-07T08:43:01.408Z,0.50
2018-02-07T08:45:28.821Z,0.40
2018-02-07T08:47:56.357Z,0.30
2018-02-07T08:50:24.524Z,0.30
2018-02-07T08:52:52.730Z,0.30
2018-02-07T08:55:20.178Z,0.30
2018-02-07T08:57:47.713Z,0.30
2018-02-07T09:00:15.120Z,0.30
2018-02-07T09:02:42.547Z,0.30
2018-02-07T09:05:09.981Z,0.40
2018-02-07T09:07:37.409Z,0.30
2018-02-07T09:10:05.628Z,0.20
2018-02-07T09:12:33.049Z,0.20
2018-02-07T09:15:00.477Z,0.20
2018-02-07T09:17:27.932Z,0.10
2018-02-07T09:19:55.500Z,0.10
2018-02-07T09:22:23.694Z,0.20
2018-02-07T09:24:51.260Z,0.20
2018-02-07T09:27:19.418Z,0.10
2018-02-07T09:29:47.621Z,0.10
2018-02-07T09:32:15.029Z,0.10
2018-02-07T09:34:42.464Z,0.10
2018-02-07T09:37:09.890Z,0.10
2018-02-07T09:39:37.307Z,0.10
2018-02-07T09:42:04.722Z,0.00
2018-02-07T09:44:32.145Z,0.00
2018-02-07T09:46:59.546Z,0.10
2018-02-07T09:49:26.995Z,0.30
2018-02-07T09:51:54.434Z,0.40
2018-02-07T09:54:21.842Z,0.50
2018-02-07T09:56:49.294Z,0.50
2018-02-07T09:59:16.749Z,0.60
2018-02-07T10:01:44.154Z,0.60
2018-02-07T10:04:11.624Z,0.50
2018-02-07T10:06:39.042Z,0.50
2018-02-07T10:09:06.552Z,0.40
2018-02-07T10:11:33.966Z,0.20
2018-02-07T10:14:02.170Z,0.50
2018-02-07T10:16:29.662Z,0.40
2018-02-07T10:18:57.101Z,0.30
2018-02-07T10:21:24.591Z,0.30
2018-02-07T10:23:51.991Z,0.40
2018-02-07T10:26:19.572Z,0.40
2018-02-07T10:28:46.981Z,0.50
2018-02-07T10:31:14.405Z,0.60
2018-02-07T10:33:41.820Z,0.70
2018-02-07T10:36:09.245Z,0.90
2018-02-07T10:38:36.678Z,0.90
2018-02-07T10:41:04.125Z,1.10
2018-02-07T10:43:31.546Z,1.20
2018-02-07T10:45:59.001Z,1.40
2018-02-07T10:48:26.501Z,1.50
2018-02-07T10:50:53.939Z,1.40
2018-02-07T10:53:21.378Z,1.20
2018-02-07T10:55:48.913Z,1.00
2018-02-07T10:58:17.109Z,1.00
2018-02-07T11:00:45.368Z,1.30
2018-02-07T11:03:12.839Z,1.30
2018-02-07T11:05:40.253Z,1.30
2018-02-07T11:08:08.486Z,1.60
2018-02-07T11:10:35.929Z,1.60
2018-02-07T11:13:03.324Z,1.90
2018-02-07T11:15:30.746Z,2.00
2018-02-07T11:17:58.165Z,1.70
2018-02-07T11:20:26.409Z,1.50
2018-02-07T11:22:53.836Z,1.50
2018-02-07T11:25:21.262Z,1.70
2018-02-07T11:27:48.687Z,1.90
2018-02-07T11:30:16.128Z,1.80
2018-02-07T11:32:43.537Z,2.00
2018-02-07T11:35:10.967Z,2.40
2018-02-07T11:37:39.169Z,3.60
2018-02-07T11:40:07.364Z,4.00
2018-02-07T11:42:34.802Z,4.00
2018-02-07T11:45:02.218Z,4.90
2018-02-07T11:47:29.694Z,6.40
2018-02-07T11:49:57.126Z,7.30
2018-02-07T11:52:25.301Z,7.40
2018-02-07T11:54:53.485Z,6.10
2018-02-07T11:57:20.915Z,6.00
2018-02-07T11:59:48.466Z,6.30
2018-02-07T12:02:15.862Z,8.40
2018-02-07T12:04:43.400Z,9.80
2018-02-07T12:07:11.574Z,12.80
2018-02-07T12:09:39.012Z,12.70
2018-02-07T12:12:06.562Z,12.90
2018-02-07T12:14:33.985Z,13.60
2018-02-07T12:17:02.175Z,14.40
2018-02-07T12:19:30.376Z,12.20
2018-02-07T12:21:57.850Z,12.20
2018-02-07T12:24:25.308Z,11.30
2018-02-07T12:26:53.737Z,6.90
2018-02-07T12:29:21.133Z,6.90
2018-02-07T12:31:49.362Z,9.00
2018-02-07T12:34:16.803Z,9.00
2018-02-07T12:36:45.027Z,10.00
2018-02-07T12:39:12.458Z,10.00
2018-02-07T12:41:40.672Z,10.60
2018-02-07T12:44:08.093Z,10.60
2018-02-07T12:46:35.517Z,12.30
2018-02-07T12:49:02.946Z,14.00
2018-02-07T12:51:31.176Z,14.00
2018-02-07T12:53:58.607Z,14.00
2018-02-07T12:56:26.822Z,11.30
2018-02-07T12:58:54.253Z,11.30
2018-02-07T13:01:22.503Z,8.40
2018-02-07T13:03:49.958Z,8.40
2018-02-07T13:06:17.410Z,9.50
2018-02-07T13:08:44.838Z,10.80
2018-02-07T13:11:13.035Z,11.80
2018-02-07T13:13:41.214Z,11.70
2018-02-07T13:16:09.405Z,12.10
2018-02-07T13:18:37.577Z,11.80
2018-02-07T13:21:05.790Z,11.30
2018-02-07T13:23:33.972Z,12.00
2018-02-07T13:26:02.173Z,12.50
2018-02-07T13:28:29.590Z,12.50
2018-02-07T13:30:57.115Z,12.50
2018-02-07T13:33:25.286Z,14.00
2018-02-07T13:35:53.484Z,13.70
2018-02-07T13:38:20.966Z,13.60
2018-02-07T13:40:48.678Z,12.90
2018-02-07T13:43:17.597Z,11.40
2018-02-07T13:45:45.789Z,11.70
2018-02-07T13:48:13.993Z,12.70
2018-02-07T13:50:41.470Z,12.70
2018-02-07T13:53:08.910Z,12.40
2018-02-07T13:55:37.125Z,11.40
2018-02-07T13:58:04.558Z,11.30
2018-02-07T14:00:39.073Z,8.70
2018-02-07T14:03:06.497Z,8.70
2018-02-07T14:05:33.921Z,8.80
2018-02-07T14:08:01.347Z,9.30
2018-02-07T14:10:28.790Z,10.20
2018-02-07T14:12:56.250Z,10.50
2018-02-07T14:15:24.534Z,9.60
2018-02-07T14:17:51.946Z,9.60
2018-02-07T14:20:19.516Z,8.90
2018-02-07T14:22:46.942Z,8.10
2018-02-07T14:25:14.354Z,7.40
2018-02-07T14:27:41.838Z,7.10
2018-02-07T14:30:09.267Z,7.90
2018-02-07T14:32:36.845Z,8.90
2018-02-07T14:35:05.014Z,7.60
2018-02-07T14:37:32.484Z,7.60
2018-02-07T14:40:00.653Z,10.10
2018-02-07T14:42:28.841Z,10.70
2018-02-07T14:44:57.045Z,10.00
2018-02-07T14:47:24.550Z,10.00
2018-02-07T14:49:52.010Z,9.70
2018-02-07T14:52:19.473Z,8.30
2018-02-07T14:54:46.932Z,7.30
2018-02-07T14:57:15.106Z,5.80
2018-02-07T14:59:42.582Z,5.70
2018-02-07T15:02:10.069Z,5.40
2018-02-07T15:04:37.510Z,4.70
2018-02-07T15:07:05.673Z,4.50
2018-02-07T15:09:33.196Z,4.40
2018-02-07T15:12:00.650Z,4.00
2018-02-07T15:14:28.120Z,3.50
2018-02-07T15:16:55.591Z,3.30
2018-02-07T15:19:23.009Z,3.20
2018-02-07T15:21:50.440Z,3.00
2018-02-07T15:24:17.901Z,2.90
2018-02-07T15:26:45.310Z,2.80
2018-02-07T15:29:12.742Z,2.70
2018-02-07T15:31:40.206Z,2.70
2018-02-07T15:34:07.640Z,2.60
2018-02-07T15:36:35.238Z,2.60
2018-02-07T15:39:03.426Z,2.80
2018-02-07T15:41:30.860Z,2.70
2018-02-07T15:43:59.037Z,2.80
2018-02-07T15:46:26.578Z,2.80
2018-02-07T15:48:54.062Z,2.70
2018-02-07T15:51:21.498Z,2.80
2018-02-07T15:53:48.986Z,2.80
2018-02-07T15:56:16.417Z,2.80
2018-02-07T15:58:44.091Z,2.80
2018-02-07T16:01:11.665Z,2.80
2018-02-07T16:03:39.961Z,2.60
2018-02-07T16:06:07.385Z,2.50
2018-02-07T16:08:34.806Z,2.50
2018-02-07T16:11:02.219Z,2.40
2018-02-07T16:13:29.646Z,2.20
2018-02-07T16:15:57.077Z,2.20
2018-02-07T16:18:25.293Z,1.90
2018-02-07T16:20:52.781Z,1.90
2018-02-07T16:23:20.205Z,1.90
2018-02-07T16:25:47.727Z,1.90
2018-02-07T16:28:15.837Z,1.90
2018-02-07T16:30:44.031Z,1.90
2018-02-07T16:33:12.237Z,1.80
2018-02-07T16:35:40.460Z,1.80
2018-02-07T16:38:07.929Z,1.80
2018-02-07T16:40:35.366Z,1.80
2018-02-07T16:43:02.811Z,1.70
2018-02-07T16:45:30.238Z,1.70
2018-02-07T16:47:57.646Z,1.60
2018-02-07T16:50:25.822Z,1.50
2018-02-07T16:52:53.306Z,1.50
2018-02-07T16:55:20.852Z,1.50
2018-02-07T16:57:48.271Z,1.50
2018-02-07T17:00:15.705Z,1.50
2018-02-07T17:02:43.133Z,1.40
2018-02-07T17:05:10.565Z,1.40
2018-02-07T17:07:38.510Z,1.30
2018-02-07T17:10:06.042Z,1.30
2018-02-07T17:12:33.446Z,1.30
2018-02-07T17:15:00.860Z,1.30
2018-02-07T17:17:28.334Z,1.20
2018-02-07T17:19:55.750Z,1.10
2018-02-07T17:22:23.941Z,1.10
2018-02-07T17:24:51.361Z,1.10
2018-02-07T17:27:18.786Z,1.10
2018-02-07T17:29:46.977Z,1.00
2018-02-07T17:32:15.522Z,1.10
2018-02-07T17:34:43.018Z,1.10
2018-02-07T17:37:10.430Z,1.00
2018-02-07T17:39:37.912Z,1.00
2018-02-07T17:42:05.369Z,0.90
2018-02-07T17:44:32.838Z,0.90
2018-02-07T17:47:00.305Z,0.90
2018-02-07T17:49:27.733Z,0.90
2018-02-07T17:51:55.144Z,0.90
2018-02-07T17:54:22.637Z,0.90
2018-02-07T17:56:50.097Z,0.90
2018-02-07T17:59:17.538Z,0.90
2018-02-07T18:01:45.744Z,0.90
2018-02-07T18:04:13.174Z,0.80
2018-02-07T18:06:41.394Z,0.70
2018-02-07T18:09:08.868Z,0.70
2018-02-07T18:11:37.155Z,0.60
2018-02-07T18:14:04.574Z,0.60
2018-02-07T18:16:31.998Z,0.60
2018-02-07T18:18:59.457Z,0.60
2018-02-07T18:21:26.881Z,0.60
2018-02-07T18:23:54.303Z,0.70
2018-02-07T18:26:21.734Z,0.60
2018-02-07T18:28:49.930Z,0.60
2018-02-07T18:31:18.157Z,0.60
2018-02-07T18:33:45.612Z,0.60
2018-02-07T18:36:13.017Z,0.60
2018-02-07T18:38:40.466Z,0.60
2018-02-07T18:41:07.918Z,0.60
2018-02-07T18:43:35.386Z,0.60
2018-02-07T18:46:02.846Z,0.50
2018-02-07T18:48:30.275Z,0.50
2018-02-07T18:50:57.713Z,0.50
2018-02-07T18:53:25.130Z,0.40
2018-02-07T18:55:53.320Z,0.40
2018-02-07T18:58:21.533Z,0.30
2018-02-07T19:00:48.954Z,0.30
2018-02-07T19:03:17.146Z,0.40
2018-02-07T19:05:45.321Z,0.40
2018-02-07T19:08:12.755Z,0.40
2018-02-07T19:10:40.180Z,0.40
2018-02-07T19:13:08.358Z,0.30
2018-02-07T19:15:36.532Z,0.30
2018-02-07T19:18:04.039Z,0.30
2018-02-07T19:20:31.513Z,0.30
2018-02-07T19:22:58.929Z,0.20
2018-02-07T19:25:26.358Z,0.20
2018-02-07T19:27:53.793Z,0.20
2018-02-07T19:30:22.017Z,0.10
2018-02-07T19:32:49.427Z,0.10
2018-02-07T19:35:16.849Z,0.10
2018-02-07T19:37:44.311Z,0.10
2018-02-07T19:40:11.764Z,0.10
2018-02-07T19:42:39.174Z,0.10
2018-02-07T19:45:06.602Z,0.10
2018-02-07T19:47:34.054Z,0.10
2018-02-07T19:50:01.553Z,0.00
2018-02-07T19:52:29.014Z,0.10
2018-02-07T19:54:56.507Z,0.10
2018-02-07T19:57:24.043Z,0.10
2018-02-07T19:59:51.499Z,0.10
2018-02-07T20:02:19.098Z,0.10
2018-02-07T20:04:47.261Z,0.10
2018-02-07T20:07:15.458Z,0.10
2018-02-07T20:09:42.889Z,0.00
2018-02-07T20:12:10.329Z,0.10
2018-02-07T20:14:37.778Z,0.10
2018-02-07T20:17:05.189Z,0.10
2018-02-07T20:19:32.591Z,0.10
2018-02-07T20:22:00.802Z,0.10
2018-02-07T20:24:28.222Z,0.00
2018-02-07T20:26:55.674Z,0.00
2018-02-07T20:29:23.065Z,0.10
2018-02-07T20:31:51.290Z,0.10
2018-02-07T20:34:18.699Z,0.10
2018-02-07T20:36:46.220Z,0.10
2018-02-07T20:39:14.518Z,0.00
2018-02-07T20:41:41.938Z,0.00
2018-02-07T20:44:09.342Z,0.00
2018-02-07T20:46:36.810Z,-0.10
2018-02-07T20:49:04.243Z,-0.10
2018-02-07T20:51:31.699Z,-0.10
2018-02-07T20:53:59.106Z,-0.10
2018-02-07T20:56:26.581Z,-0.10
2018-02-07T20:58:54.007Z,-0.10
2018-02-07T21:01:21.459Z,-0.20
2018-02-07T21:03:48.886Z,-0.30
2018-02-07T21:06:16.361Z,-0.20
2018-02-07T21:08:43.802Z,-0.20
2018-02-07T21:11:12.107Z,-0.30
2018-02-07T21:13:40.282Z,-0.30
2018-02-07T21:16:08.510Z,-0.30
2018-02-07T21:18:35.922Z,-0.30
2018-02-07T21:21:04.163Z,-0.30
2018-02-07T21:23:31.610Z,-0.40
2018-02-07T21:25:59.041Z,-0.30
2018-02-07T21:28:26.574Z,-0.30
2018-02-07T21:30:54.000Z,-0.30
2018-02-07T21:33:22.203Z,-0.50
2018-02-07T21:35:50.181Z,-0.50
2018-02-07T21:38:17.656Z,-0.50
2018-02-07T21:40:45.077Z,-0.60
2018-02-07T21:43:12.510Z,-0.60
2018-02-07T21:45:39.966Z,-0.60
2018-02-07T21:48:07.426Z,-0.60
2018-02-07T21:50:34.900Z,-0.60
2018-02-07T21:53:02.326Z,-0.60
2018-02-07T21:55:29.755Z,-0.60
2018-02-07T21:57:57.171Z,-0.70
2018-02-07T22:00:25.417Z,-0.70
2018-02-07T22:02:52.865Z,-0.70
2018-02-07T22:05:20.436Z,-0.70
2018-02-07T22:07:47.879Z,-0.70
2018-02-07T22:10:16.187Z,-0.70
2018-02-07T22:12:43.618Z,-0.70
2018-02-07T22:15:11.868Z,-0.80
2018-02-07T22:17:39.289Z,-0.80
2018-02-07T22:20:07.477Z,-0.80
2018-02-07T22:22:35.764Z,-0.80
2018-02-07T22:25:03.974Z,-0.80
2018-02-07T22:27:31.414Z,-0.90
2018-02-07T22:29:59.605Z,-0.80
2018-02-07T22:32:27.813Z,-0.90
2018-02-07T22:34:55.279Z,-0.90
2018-02-07T22:37:22.761Z,-0.80
2018-02-07T22:39:50.235Z,-0.90
2018-02-07T22:42:17.637Z,-0.90
2018-02-07T22:44:45.070Z,-0.90
2018-02-07T22:47:12.485Z,-1.00
2018-02-07T22:49:39.930Z,-1.00
2018-02-07T22:52:07.332Z,-1.00
2018-02-07T22:54:35.518Z,-1.00
2018-02-07T22:57:03.695Z,-1.00
2018-02-07T22:59:31.950Z,-1.00
2018-02-07T23:01:59.361Z,-1.00
2018-02-07T23:04:26.920Z,-1.00
2018-02-07T23:06:54.387Z,-1.00
2018-02-07T23:09:21.928Z,-1.00
2018-02-07T23:11:50.167Z,-1.00
2018-02-07T23:14:17.613Z,-1.00
2018-02-07T23:16:45.033Z,-1.00
2018-02-07T23:19:12.485Z,-1.00
2018-02-07T23:21:39.920Z,-1.00
2018-02-07T23:24:07.390Z,-1.10
2018-02-07T23:26:34.810Z,-1.10
2018-02-07T23:29:03.018Z,-1.20
2018-02-07T23:31:31.212Z,-1.30
2018-02-07T23:33:59.426Z,-1.40
2018-02-07T23:36:26.990Z,-1.40
2018-02-07T23:38:54.463Z,-1.40
2018-02-07T23:41:21.922Z,-1.50
2018-02-07T23:43:49.398Z,-1.50
2018-02-07T23:46:16.818Z,-1.50
2018-02-07T23:48:44.267Z,-1.50
2018-02-07T23:51:11.696Z,-1.40
2018-02-07T23:53:39.125Z,-1.40
2018-02-07T23:56:06.551Z,-1.40
2018-02-07T23:58:33.992Z,-1.40
